Time;durP1;ratioP1;P1;durP2;ratioP2;P2;SDS_P1;SDS_P2;PMS_P1;PMS_P2;Temp;Humidity;BMP_temperature;BMP_pressure;BME280_temperature;BME280_humidity;BME280_pressure;Samples;Min_cycle;Max_cycle;Signal;HPM_P1;HPM_P2
2023/08/28 00:02:05;;;;;;;6.87;3.33;;;;;;;;;;5013217;28;20595;-75
2023/08/28 00:04:30;;;;;;;5.22;2.72;;;;;;;;;;5016849;28;20517;-75
2023/08/28 00:06:55;;;;;;;5.20;2.83;;;;;;;;;;5018057;28;20035;-75
2023/08/28 00:09:21;;;;;;;5.10;3.03;;;;;;;;;;5001240;28;20157;-74
2023/08/28 00:11:46;;;;;;;5.95;3.03;;;;;;;;;;5004729;28;20719;-74
2023/08/28 00:14:11;;;;;;;3.97;2.60;;;;;;;;;;5006121;28;20038;-74
2023/08/28 00:16:37;;;;;;;5.90;2.70;;;;;;;;;;4988906;28;20805;-74
2023/08/28 00:19:02;;;;;;;4.77;2.80;;;;;;;;;;4988478;28;20060;-75
2023/08/28 00:21:28;;;;;;;5.88;3.47;;;;;;;;;;4986505;28;20053;-74
2023/08/28 00:23:54;;;;;;;6.90;2.78;;;;;;;;;;4986894;28;20038;-74
2023/08/28 00:26:19;;;;;;;4.43;2.80;;;;;;;;;;4969088;28;20058;-74
2023/08/28 00:28:44;;;;;;;4.38;2.88;;;;;;;;;;5009148;28;20265;-74
2023/08/28 00:31:10;;;;;;;4.33;2.73;;;;;;;;;;5006205;28;20034;-74
2023/08/28 00:33:35;;;;;;;5.03;3.38;;;;;;;;;;5025168;28;20280;-74
2023/08/28 00:36:00;;;;;;;4.57;2.73;;;;;;;;;;5023634;28;20041;-73
2023/08/28 00:38:25;;;;;;;4.53;2.70;;;;;;;;;;5002627;28;20323;-75
2023/08/28 00:40:50;;;;;;;7.37;2.93;;;;;;;;;;5004927;28;20284;-75
2023/08/28 00:43:16;;;;;;;4.10;2.67;;;;;;;;;;5025419;28;20293;-74
2023/08/28 00:45:42;;;;;;;5.80;3.30;;;;;;;;;;5008684;28;20574;-74
2023/08/28 00:48:07;;;;;;;4.10;2.60;;;;;;;;;;5011190;28;20037;-75
2023/08/28 00:50:32;;;;;;;5.30;2.90;;;;;;;;;;5011365;28;20288;-75
2023/08/28 00:52:58;;;;;;;5.63;3.00;;;;;;;;;;5016463;28;20056;-76
2023/08/28 00:55:23;;;;;;;4.70;2.80;;;;;;;;;;4992478;28;21435;-75
2023/08/28 00:57:48;;;;;;;5.43;2.58;;;;;;;;;;5009051;28;20041;-76
2023/08/28 01:00:13;;;;;;;7.33;3.30;;;;;;;;;;5008676;28;20037;-76
2023/08/28 01:02:39;;;;;;;6.03;2.78;;;;;;;;;;5004194;28;20295;-73
2023/08/28 01:05:05;;;;;;;5.20;2.90;;;;;;;;;;5029172;28;20048;-74
2023/08/28 01:07:33;;;;;;;5.43;2.92;;;;;;;;;;5029173;28;20109;-74
2023/08/28 01:10:01;;;;;;;6.07;3.30;;;;;;;;;;5007414;28;20069;-74
2023/08/28 01:12:26;;;;;;;5.15;3.10;;;;;;;;;;5012169;28;20205;-74
2023/08/28 01:15:10;;;;;;;4.70;3.43;;;;;;;;;;5030090;28;20029;-73
2023/08/28 01:17:36;;;;;;;5.53;3.50;;;;;;;;;;5028857;28;20511;-74
2023/08/28 01:20:01;;;;;;;5.90;3.20;;;;;;;;;;5014318;28;20128;-74
2023/08/28 01:22:38;;;;;;;5.00;2.90;;;;;;;;;;5008378;28;20037;-73
2023/08/28 01:25:10;;;;;;;6.88;3.75;;;;;;;;;;5007041;28;20049;-74
2023/08/28 01:27:36;;;;;;;5.90;3.40;;;;;;;;;;5008281;28;20276;-72
2023/08/28 01:30:09;;;;;;;5.53;3.80;;;;;;;;;;5017421;28;20511;-72
2023/08/28 01:32:34;;;;;;;12.05;3.95;;;;;;;;;;5029363;28;20194;-72
2023/08/28 01:35:00;;;;;;;6.43;3.80;;;;;;;;;;5028952;28;20573;-72
2023/08/28 01:37:25;;;;;;;8.07;3.88;;;;;;;;;;5027832;28;20527;-73
2023/08/28 01:39:51;;;;;;;6.72;3.65;;;;;;;;;;5027806;28;20057;-72
2023/08/28 01:42:16;;;;;;;5.40;3.53;;;;;;;;;;5019470;28;20571;-72
2023/08/28 01:44:41;;;;;;;6.15;3.63;;;;;;;;;;5041527;28;20555;-73
2023/08/28 01:47:06;;;;;;;5.77;3.43;;;;;;;;;;5010774;28;20124;-72
2023/08/28 01:49:35;;;;;;;4.70;3.23;;;;;;;;;;4982012;28;20061;-72
2023/08/28 01:52:00;;;;;;;4.00;3.28;;;;;;;;;;5009506;28;20044;-72
2023/08/28 01:54:25;;;;;;;4.63;3.27;;;;;;;;;;5017090;28;20038;-72
2023/08/28 01:56:50;;;;;;;5.03;3.20;;;;;;;;;;5028940;28;20072;-72
2023/08/28 01:59:15;;;;;;;6.60;3.60;;;;;;;;;;4999366;28;20065;-72
2023/08/28 02:01:41;;;;;;;5.13;3.27;;;;;;;;;;5008487;28;20571;-73
2023/08/28 02:04:06;;;;;;;4.93;3.47;;;;;;;;;;5009317;28;20056;-72
2023/08/28 02:06:32;;;;;;;5.25;3.47;;;;;;;;;;5043706;28;20099;-74
2023/08/28 02:08:57;;;;;;;5.73;3.50;;;;;;;;;;5019673;28;20134;-74
2023/08/28 02:11:22;;;;;;;5.90;3.45;;;;;;;;;;5007909;28;20347;-73
2023/08/28 02:13:47;;;;;;;5.23;3.57;;;;;;;;;;5008336;28;20062;-74
2023/08/28 02:16:13;;;;;;;8.53;3.60;;;;;;;;;;5006296;28;20092;-74
2023/08/28 02:18:39;;;;;;;6.97;3.80;;;;;;;;;;5020912;28;20297;-74
2023/08/28 02:21:04;;;;;;;4.43;2.97;;;;;;;;;;5025790;28;20492;-74
2023/08/28 02:23:29;;;;;;;7.23;4.20;;;;;;;;;;5026733;28;20056;-75
2023/08/28 02:25:54;;;;;;;7.07;4.25;;;;;;;;;;5026770;28;20944;-75
2023/08/28 02:28:20;;;;;;;6.32;3.53;;;;;;;;;;5026177;28;20043;-75
2023/08/28 02:30:45;;;;;;;7.25;4.05;;;;;;;;;;5016104;28;20514;-74
2023/08/28 02:33:10;;;;;;;6.40;3.88;;;;;;;;;;5022742;28;20124;-75
2023/08/28 02:35:36;;;;;;;7.72;4.43;;;;;;;;;;5003391;28;20562;-74
2023/08/28 02:38:01;;;;;;;5.87;4.20;;;;;;;;;;5028139;28;20048;-73
2023/08/28 02:40:26;;;;;;;5.82;3.97;;;;;;;;;;5008766;28;20147;-73
2023/08/28 02:42:53;;;;;;;7.07;4.53;;;;;;;;;;5018950;28;20057;-74
2023/08/28 02:45:18;;;;;;;6.55;4.45;;;;;;;;;;5026308;28;20337;-75
2023/08/28 02:47:43;;;;;;;6.87;4.10;;;;;;;;;;5027173;28;20337;-74
2023/08/28 02:50:08;;;;;;;7.27;4.87;;;;;;;;;;5022039;28;20315;-74
2023/08/28 02:52:34;;;;;;;6.90;4.32;;;;;;;;;;5008350;28;20038;-74
2023/08/28 02:54:59;;;;;;;6.83;5.20;;;;;;;;;;5006459;28;20030;-74
2023/08/28 02:57:24;;;;;;;6.13;4.10;;;;;;;;;;4990731;28;20045;-74
2023/08/28 02:59:49;;;;;;;7.07;4.87;;;;;;;;;;5007059;28;20053;-74
2023/08/28 03:02:14;;;;;;;6.97;4.75;;;;;;;;;;5007685;28;20074;-74
2023/08/28 03:04:42;;;;;;;7.30;5.10;;;;;;;;;;5014617;28;20069;-74
2023/08/28 03:07:07;;;;;;;8.27;4.60;;;;;;;;;;5027870;28;20041;-74
2023/08/28 03:09:32;;;;;;;6.50;4.72;;;;;;;;;;4994424;28;20040;-74
2023/08/28 03:11:57;;;;;;;6.63;4.73;;;;;;;;;;5018603;28;20053;-74
2023/08/28 03:14:23;;;;;;;5.47;4.70;;;;;;;;;;5040329;28;20041;-74
2023/08/28 03:16:48;;;;;;;7.57;4.87;;;;;;;;;;5027594;28;20118;-74
2023/08/28 03:19:13;;;;;;;6.17;4.43;;;;;;;;;;5022210;28;20985;-75
2023/08/28 03:21:40;;;;;;;7.53;4.47;;;;;;;;;;5005472;28;20716;-74
2023/08/28 03:24:05;;;;;;;6.70;4.88;;;;;;;;;;5005955;28;20686;-75
2023/08/28 03:26:30;;;;;;;7.82;4.90;;;;;;;;;;5005865;28;20042;-74
2023/08/28 03:28:56;;;;;;;8.13;5.20;;;;;;;;;;5007577;28;20179;-74
2023/08/28 03:31:21;;;;;;;8.70;5.10;;;;;;;;;;4989602;28;20089;-75
2023/08/28 03:33:46;;;;;;;9.05;4.97;;;;;;;;;;5008113;28;20534;-74
2023/08/28 03:36:11;;;;;;;7.60;4.83;;;;;;;;;;5009544;28;20042;-73
2023/08/28 03:38:37;;;;;;;8.60;4.90;;;;;;;;;;5009215;28;20280;-74
2023/08/28 03:41:02;;;;;;;7.22;4.72;;;;;;;;;;5035642;28;20041;-74
2023/08/28 03:43:27;;;;;;;8.73;5.20;;;;;;;;;;5006197;28;20046;-73
2023/08/28 03:45:53;;;;;;;10.63;5.03;;;;;;;;;;5005628;28;20296;-73
2023/08/28 03:48:18;;;;;;;8.13;4.97;;;;;;;;;;5018045;28;20817;-73
2023/08/28 03:50:44;;;;;;;9.07;5.10;;;;;;;;;;5012639;28;20555;-74
2023/08/28 03:53:10;;;;;;;6.47;5.03;;;;;;;;;;5010013;28;20052;-74
2023/08/28 03:55:35;;;;;;;8.67;5.07;;;;;;;;;;5010034;28;20116;-74
2023/08/28 03:58:03;;;;;;;7.80;5.33;;;;;;;;;;5004083;28;20830;-74
2023/08/28 04:00:28;;;;;;;6.22;4.65;;;;;;;;;;5004646;28;20137;-74
2023/08/28 04:02:54;;;;;;;8.55;5.50;;;;;;;;;;5005123;28;20479;-73
2023/08/28 04:05:21;;;;;;;7.30;5.38;;;;;;;;;;5021813;28;20048;-74
2023/08/28 04:07:46;;;;;;;9.45;5.28;;;;;;;;;;5026781;28;20061;-73
2023/08/28 04:10:11;;;;;;;8.95;5.43;;;;;;;;;;5000244;28;20081;-73
2023/08/28 04:12:37;;;;;;;8.53;5.70;;;;;;;;;;5007509;28;20449;-74
2023/08/28 04:15:03;;;;;;;8.48;5.30;;;;;;;;;;5019916;28;20756;-74
2023/08/28 04:17:29;;;;;;;8.50;5.60;;;;;;;;;;5022133;28;20112;-74
2023/08/28 04:19:54;;;;;;;7.85;5.03;;;;;;;;;;5005463;28;20144;-72
2023/08/28 04:22:19;;;;;;;7.38;5.30;;;;;;;;;;5018310;28;20400;-73
2023/08/28 04:24:45;;;;;;;6.63;5.33;;;;;;;;;;5040833;28;20093;-73
2023/08/28 04:27:10;;;;;;;9.52;5.28;;;;;;;;;;5008080;28;20284;-73
2023/08/28 04:29:36;;;;;;;7.93;5.17;;;;;;;;;;5006457;28;20136;-74
2023/08/28 04:32:01;;;;;;;8.43;5.60;;;;;;;;;;5006256;28;20818;-74
2023/08/28 04:34:26;;;;;;;7.83;5.27;;;;;;;;;;5006382;28;20652;-74
2023/08/28 04:36:51;;;;;;;9.97;6.00;;;;;;;;;;5004446;28;20719;-74
2023/08/28 04:39:16;;;;;;;11.47;6.23;;;;;;;;;;5004588;28;20460;-74
2023/08/28 04:41:42;;;;;;;9.03;5.70;;;;;;;;;;4980841;28;20409;-74
2023/08/28 04:44:07;;;;;;;10.27;5.40;;;;;;;;;;5011473;28;20488;-73
2023/08/28 04:46:32;;;;;;;6.90;4.67;;;;;;;;;;5004807;28;20730;-73
2023/08/28 04:48:57;;;;;;;10.63;5.67;;;;;;;;;;5001515;28;20455;-74
2023/08/28 04:51:22;;;;;;;7.73;5.80;;;;;;;;;;4994066;28;20046;-74
2023/08/28 04:53:48;;;;;;;9.10;5.70;;;;;;;;;;4991703;28;20764;-72
2023/08/28 04:56:13;;;;;;;8.33;5.30;;;;;;;;;;4992726;28;20388;-72
2023/08/28 04:58:38;;;;;;;9.33;5.77;;;;;;;;;;5007323;28;20038;-70
2023/08/28 05:01:03;;;;;;;9.77;5.40;;;;;;;;;;4992229;28;20316;-73
2023/08/28 05:03:29;;;;;;;7.40;5.47;;;;;;;;;;4992324;28;20313;-72
2023/08/28 05:05:54;;;;;;;27.48;17.27;;;;;;;;;;4990587;28;20026;-72
2023/08/28 05:08:19;;;;;;;19.23;12.20;;;;;;;;;;4993392;28;20121;-72
2023/08/28 05:10:44;;;;;;;13.43;8.98;;;;;;;;;;4994094;28;20156;-71
2023/08/28 05:13:10;;;;;;;16.37;10.57;;;;;;;;;;5005334;28;20034;-71
2023/08/28 05:15:35;;;;;;;11.32;7.53;;;;;;;;;;4993558;28;20113;-70
2023/08/28 05:18:00;;;;;;;11.10;6.32;;;;;;;;;;4994983;28;20693;-72
2023/08/28 05:20:26;;;;;;;10.48;6.03;;;;;;;;;;4992772;28;20035;-72
2023/08/28 05:22:51;;;;;;;12.77;5.80;;;;;;;;;;4992238;28;20431;-69
2023/08/28 05:25:17;;;;;;;10.03;5.90;;;;;;;;;;5011518;28;20461;-69
2023/08/28 05:27:42;;;;;;;11.32;5.80;;;;;;;;;;4999396;28;20504;-70
2023/08/28 05:30:08;;;;;;;9.77;5.50;;;;;;;;;;4981266;28;20675;-80
2023/08/28 05:32:33;;;;;;;10.50;5.68;;;;;;;;;;5013322;28;20828;-70
2023/08/28 05:34:59;;;;;;;9.23;6.07;;;;;;;;;;4998116;28;20046;-71
2023/08/28 05:37:25;;;;;;;10.02;5.95;;;;;;;;;;4996801;28;20300;-72
2023/08/28 05:39:50;;;;;;;9.02;6.03;;;;;;;;;;4996481;28;20038;-72
2023/08/28 05:42:16;;;;;;;11.75;5.28;;;;;;;;;;4980969;28;20037;-72
2023/08/28 05:44:45;;;;;;;8.73;5.38;;;;;;;;;;4996184;28;20046;-72
2023/08/28 05:47:10;;;;;;;10.52;5.47;;;;;;;;;;4977783;28;20120;-72
2023/08/28 05:49:35;;;;;;;10.47;5.90;;;;;;;;;;4975428;28;20176;-73
2023/08/28 05:52:00;;;;;;;7.63;5.13;;;;;;;;;;4995002;28;20305;-73
2023/08/28 05:54:25;;;;;;;9.43;5.77;;;;;;;;;;5001184;28;20037;-73
2023/08/28 05:56:51;;;;;;;8.43;5.47;;;;;;;;;;4979936;28;20292;-73
2023/08/28 05:59:16;;;;;;;7.88;5.43;;;;;;;;;;4996364;28;20026;-74
2023/08/28 06:01:41;;;;;;;8.60;5.00;;;;;;;;;;5014578;28;20054;-73
2023/08/28 06:04:06;;;;;;;10.20;4.73;;;;;;;;;;4995257;28;20065;-73
2023/08/28 06:06:32;;;;;;;8.13;5.23;;;;;;;;;;4996649;28;20298;-73
2023/08/28 06:08:57;;;;;;;9.38;5.07;;;;;;;;;;4995926;28;20293;-73
2023/08/28 06:11:22;;;;;;;9.47;4.73;;;;;;;;;;4977910;28;20052;-73
2023/08/28 06:13:47;;;;;;;10.63;4.87;;;;;;;;;;4979947;28;20022;-73
2023/08/28 06:16:13;;;;;;;8.23;4.93;;;;;;;;;;4976075;28;20888;-73
2023/08/28 06:18:38;;;;;;;10.43;5.50;;;;;;;;;;4975132;28;20132;-73
2023/08/28 06:21:03;;;;;;;9.23;5.05;;;;;;;;;;4994049;28;20097;-74
2023/08/28 06:23:29;;;;;;;8.80;5.20;;;;;;;;;;4993747;28;20129;-74
2023/08/28 06:25:54;;;;;;;10.32;5.43;;;;;;;;;;5009233;28;20042;-73
2023/08/28 06:28:20;;;;;;;9.33;5.07;;;;;;;;;;4992693;28;20415;-74
2023/08/28 06:30:45;;;;;;;11.33;5.17;;;;;;;;;;5009360;28;20404;-74
2023/08/28 06:33:10;;;;;;;10.40;5.10;;;;;;;;;;4993547;28;20285;-74
2023/08/28 06:35:35;;;;;;;9.97;4.87;;;;;;;;;;4974884;28;20040;-74
2023/08/28 06:38:01;;;;;;;9.40;4.70;;;;;;;;;;4993286;28;20320;-74
2023/08/28 06:40:26;;;;;;;8.13;4.90;;;;;;;;;;4997408;28;20285;-74
2023/08/28 06:42:51;;;;;;;11.43;4.77;;;;;;;;;;5003756;28;20022;-74
2023/08/28 06:45:16;;;;;;;6.57;4.50;;;;;;;;;;5010030;28;20040;-74
2023/08/28 06:47:41;;;;;;;11.03;4.90;;;;;;;;;;5040486;28;20009;-74
2023/08/28 06:50:07;;;;;;;7.50;4.73;;;;;;;;;;5009613;28;20835;-74
2023/08/28 06:52:32;;;;;;;7.75;4.07;;;;;;;;;;5009909;28;20631;-73
2023/08/28 06:54:57;;;;;;;7.10;4.75;;;;;;;;;;5008660;28;20766;-73
2023/08/28 06:57:22;;;;;;;7.60;4.07;;;;;;;;;;5014702;28;20037;-74
2023/08/28 06:59:49;;;;;;;7.83;4.87;;;;;;;;;;5005682;28;20277;-74
2023/08/28 07:02:14;;;;;;;7.57;4.45;;;;;;;;;;5000765;28;20559;-72
2023/08/28 07:04:39;;;;;;;7.35;4.45;;;;;;;;;;4994129;28;20038;-72
2023/08/28 07:07:04;;;;;;;9.77;4.40;;;;;;;;;;4985507;28;20029;-72
2023/08/28 07:09:30;;;;;;;8.70;4.67;;;;;;;;;;5009309;28;20626;-72
2023/08/28 07:11:55;;;;;;;6.78;4.40;;;;;;;;;;4995928;28;20085;-72
2023/08/28 07:14:20;;;;;;;6.80;4.47;;;;;;;;;;4975837;28;20037;-72
2023/08/28 07:16:45;;;;;;;8.60;4.83;;;;;;;;;;4976015;28;20026;-72
2023/08/28 07:19:11;;;;;;;9.63;4.77;;;;;;;;;;5008373;28;21349;-72
2023/08/28 07:21:36;;;;;;;9.27;4.77;;;;;;;;;;4993564;28;20530;-72
2023/08/28 07:24:01;;;;;;;6.87;4.30;;;;;;;;;;4994992;28;20100;-73
2023/08/28 07:26:26;;;;;;;7.82;4.32;;;;;;;;;;4975188;28;20436;-71
2023/08/28 07:28:52;;;;;;;6.43;4.10;;;;;;;;;;4994319;28;20022;-71
2023/08/28 07:31:17;;;;;;;6.25;4.18;;;;;;;;;;5005247;28;20276;-72
2023/08/28 07:33:42;;;;;;;7.27;3.93;;;;;;;;;;4998685;28;20022;-72
2023/08/28 07:36:08;;;;;;;7.15;3.90;;;;;;;;;;5000461;28;20512;-72
2023/08/28 07:38:33;;;;;;;6.22;3.63;;;;;;;;;;5000687;28;20061;-72
2023/08/28 07:40:58;;;;;;;6.10;4.03;;;;;;;;;;5012601;28;20469;-71
2023/08/28 07:43:24;;;;;;;9.70;4.80;;;;;;;;;;5019098;28;20036;-71
2023/08/28 07:45:49;;;;;;;10.52;4.80;;;;;;;;;;5017531;28;20848;-71
2023/08/28 07:48:14;;;;;;;8.30;4.27;;;;;;;;;;4992605;28;20089;-71
2023/08/28 07:50:42;;;;;;;7.30;4.30;;;;;;;;;;5004895;28;20623;-72
2023/08/28 07:53:08;;;;;;;7.47;4.40;;;;;;;;;;4979269;28;21248;-71
2023/08/28 07:55:33;;;;;;;7.65;4.32;;;;;;;;;;5000366;28;20105;-72
2023/08/28 07:57:58;;;;;;;7.68;4.50;;;;;;;;;;5006678;28;20033;-72
2023/08/28 08:00:23;;;;;;;9.53;4.67;;;;;;;;;;5000307;28;20068;-72
2023/08/28 08:02:49;;;;;;;8.50;4.50;;;;;;;;;;5003493;28;20022;-72
2023/08/28 08:05:14;;;;;;;7.97;4.15;;;;;;;;;;5006546;28;20029;-71
2023/08/28 08:07:39;;;;;;;6.60;4.50;;;;;;;;;;5026643;28;20050;-71
2023/08/28 08:10:06;;;;;;;7.20;4.10;;;;;;;;;;5026619;28;20291;-72
2023/08/28 08:12:31;;;;;;;6.68;4.13;;;;;;;;;;4986692;28;20814;-72
2023/08/28 08:14:56;;;;;;;6.90;3.87;;;;;;;;;;5004665;28;20101;-72
2023/08/28 08:17:22;;;;;;;7.63;4.23;;;;;;;;;;4993157;28;20049;-71
2023/08/28 08:19:47;;;;;;;7.50;4.47;;;;;;;;;;4996550;28;20544;-71
2023/08/28 08:22:12;;;;;;;9.50;4.87;;;;;;;;;;5002947;28;20444;-72
2023/08/28 08:24:37;;;;;;;8.07;4.10;;;;;;;;;;5006921;28;20460;-73
2023/08/28 08:27:03;;;;;;;7.67;4.17;;;;;;;;;;5022644;28;20520;-72
2023/08/28 08:29:28;;;;;;;9.57;4.03;;;;;;;;;;5005889;28;20034;-71
2023/08/28 08:31:54;;;;;;;7.40;4.27;;;;;;;;;;5027651;28;20111;-71
2023/08/28 08:34:19;;;;;;;5.60;4.00;;;;;;;;;;5010905;28;20033;-73
2023/08/28 08:36:44;;;;;;;7.00;4.60;;;;;;;;;;5008503;28;20272;-71
2023/08/28 08:39:10;;;;;;;7.60;4.70;;;;;;;;;;5026534;28;20029;-72
2023/08/28 08:41:36;;;;;;;6.13;4.20;;;;;;;;;;5024732;28;20046;-72
2023/08/28 08:44:01;;;;;;;8.55;4.10;;;;;;;;;;5011404;28;20527;-72
2023/08/28 08:46:26;;;;;;;8.30;4.50;;;;;;;;;;5015490;28;20112;-71
2023/08/28 08:48:53;;;;;;;8.18;4.63;;;;;;;;;;5023807;28;20037;-71
2023/08/28 08:51:18;;;;;;;8.88;4.15;;;;;;;;;;4999277;28;20101;-80
2023/08/28 08:53:55;;;;;;;7.13;4.35;;;;;;;;;;5008012;28;20045;-73
2023/08/28 08:56:21;;;;;;;9.32;4.25;;;;;;;;;;5019629;28;20068;-72
2023/08/28 08:58:47;;;;;;;8.63;4.50;;;;;;;;;;5028911;28;20029;-71
2023/08/28 09:01:12;;;;;;;7.97;4.57;;;;;;;;;;5024030;28;20285;-72
2023/08/28 09:03:40;;;;;;;9.07;4.03;;;;;;;;;;5008409;28;20053;-72
2023/08/28 09:06:06;;;;;;;7.55;4.18;;;;;;;;;;5027438;28;20551;-72
2023/08/28 09:08:32;;;;;;;7.20;4.50;;;;;;;;;;5029443;28;20033;-72
2023/08/28 09:10:57;;;;;;;8.02;4.47;;;;;;;;;;4989061;28;20053;-72
2023/08/28 09:13:22;;;;;;;7.00;4.30;;;;;;;;;;5008347;28;20524;-73
2023/08/28 09:15:47;;;;;;;8.20;4.13;;;;;;;;;;5024242;28;20037;-72
2023/08/28 09:18:13;;;;;;;7.22;4.25;;;;;;;;;;5028323;28;20113;-71
2023/08/28 09:20:38;;;;;;;6.83;4.23;;;;;;;;;;5028241;28;20045;-72
2023/08/28 09:23:03;;;;;;;6.60;4.63;;;;;;;;;;5022617;28;20064;-73
2023/08/28 09:25:28;;;;;;;7.27;4.33;;;;;;;;;;5020794;28;20602;-75
2023/08/28 09:27:54;;;;;;;8.63;3.93;;;;;;;;;;5004916;28;20458;-72
2023/08/28 09:30:37;;;;;;;8.55;4.25;;;;;;;;;;5002924;28;20233;-74
2023/08/28 09:33:04;;;;;;;7.15;3.85;;;;;;;;;;5006394;28;20030;-73
2023/08/28 09:35:39;;;;;;;5.90;4.03;;;;;;;;;;5011474;28;20034;-72
2023/08/28 09:38:04;;;;;;;6.97;4.00;;;;;;;;;;5022737;28;20041;-72
2023/08/28 09:40:33;;;;;;;9.02;3.88;;;;;;;;;;5007673;28;20022;-71
2023/08/28 09:42:59;;;;;;;7.65;4.07;;;;;;;;;;5022802;28;20042;-72
2023/08/28 09:45:31;;;;;;;6.45;4.05;;;;;;;;;;5019009;28;20123;-72
2023/08/28 09:47:56;;;;;;;6.15;3.97;;;;;;;;;;5026807;28;20036;-72
2023/08/28 09:50:25;;;;;;;6.97;3.70;;;;;;;;;;5021791;28;20498;-72
2023/08/28 09:52:51;;;;;;;5.70;3.50;;;;;;;;;;5023882;28;20334;-71
2023/08/28 09:55:16;;;;;;;6.10;3.50;;;;;;;;;;5017124;28;20029;-71
2023/08/28 09:57:44;;;;;;;7.20;3.80;;;;;;;;;;5010282;28;20041;-72
2023/08/28 10:00:11;;;;;;;5.03;3.45;;;;;;;;;;4998625;28;20304;-72
2023/08/28 10:02:36;;;;;;;6.43;3.58;;;;;;;;;;5007269;28;20096;-71
2023/08/28 10:05:02;;;;;;;5.70;3.70;;;;;;;;;;4996200;28;20575;-72
2023/08/28 10:07:28;;;;;;;5.75;3.47;;;;;;;;;;5026914;28;20602;-72
2023/08/28 10:09:54;;;;;;;6.35;3.20;;;;;;;;;;5028489;28;20053;-71
2023/08/28 10:12:20;;;;;;;6.07;3.47;;;;;;;;;;5027125;28;20048;-71
2023/08/28 10:14:46;;;;;;;3.80;2.65;;;;;;;;;;5011253;28;20288;-71
2023/08/28 10:17:12;;;;;;;5.00;2.90;;;;;;;;;;5008371;28;20045;-72
2023/08/28 10:20:09;;;;;;;5.97;3.05;;;;;;;;;;5008986;28;20052;-71
2023/08/28 10:22:35;;;;;;;4.85;3.20;;;;;;;;;;4994860;28;20102;-72
2023/08/28 10:25:00;;;;;;;6.25;2.95;;;;;;;;;;5010354;28;20142;-72
2023/08/28 10:27:25;;;;;;;5.53;3.00;;;;;;;;;;5027610;28;20034;-72
2023/08/28 10:29:50;;;;;;;6.47;2.90;;;;;;;;;;5026830;28;20037;-72
2023/08/28 10:32:16;;;;;;;5.40;2.93;;;;;;;;;;5026623;28;20364;-72
2023/08/28 10:34:44;;;;;;;5.23;2.90;;;;;;;;;;5006908;28;20082;-73
2023/08/28 10:37:09;;;;;;;4.35;2.58;;;;;;;;;;5009602;28;20371;-72
2023/08/28 10:39:35;;;;;;;5.45;2.83;;;;;;;;;;5009467;28;20401;-72
2023/08/28 10:42:00;;;;;;;5.03;2.75;;;;;;;;;;5027461;28;20033;-72
2023/08/28 10:44:26;;;;;;;4.60;2.70;;;;;;;;;;5017220;28;20038;-71
2023/08/28 10:46:51;;;;;;;5.85;2.70;;;;;;;;;;5007058;28;20088;-73
2023/08/28 10:49:17;;;;;;;7.60;2.95;;;;;;;;;;5026356;28;20033;-72
2023/08/28 10:51:44;;;;;;;5.25;2.78;;;;;;;;;;5002765;28;20057;-75
2023/08/28 10:54:09;;;;;;;7.18;2.80;;;;;;;;;;5011609;28;20026;-74
2023/08/28 10:56:35;;;;;;;3.78;2.30;;;;;;;;;;5020481;28;20028;-76
2023/08/28 10:59:33;;;;;;;6.80;2.88;;;;;;;;;;5024815;28;20104;-77
2023/08/28 11:01:59;;;;;;;4.75;2.67;;;;;;;;;;4968552;28;20041;-78
2023/08/28 11:04:31;;;;;;;5.30;3.17;;;;;;;;;;5014972;28;20038;-75
2023/08/28 11:06:57;;;;;;;5.78;3.10;;;;;;;;;;5007219;28;20516;-75
2023/08/28 11:09:28;;;;;;;5.57;2.67;;;;;;;;;;5010444;28;20120;-75
2023/08/28 11:12:03;;;;;;;6.40;2.97;;;;;;;;;;5006639;28;20329;-77
2023/08/28 11:14:31;;;;;;;4.13;2.53;;;;;;;;;;4998693;28;20178;-78
2023/08/28 11:17:05;;;;;;;4.18;2.80;;;;;;;;;;5004613;28;20132;-78
2023/08/28 11:19:31;;;;;;;5.90;3.00;;;;;;;;;;5004880;28;20389;-78
2023/08/28 11:21:59;;;;;;;5.27;2.70;;;;;;;;;;4989082;28;20049;-78
2023/08/28 11:24:25;;;;;;;5.43;2.88;;;;;;;;;;4991666;28;20438;-78
2023/08/28 11:26:50;;;;;;;5.05;2.72;;;;;;;;;;4991864;28;20048;-78
2023/08/28 11:29:24;;;;;;;4.83;2.50;;;;;;;;;;5008461;28;20037;-78
2023/08/28 11:31:50;;;;;;;5.57;3.10;;;;;;;;;;5022038;28;20287;-78
2023/08/28 11:34:15;;;;;;;3.38;2.50;;;;;;;;;;5021800;28;20022;-78
2023/08/28 11:36:40;;;;;;;4.13;2.50;;;;;;;;;;4996697;28;20407;-78
2023/08/28 11:39:06;;;;;;;4.32;2.50;;;;;;;;;;5006411;28;20041;-78
2023/08/28 11:41:31;;;;;;;4.03;2.50;;;;;;;;;;5007392;28;20090;-78
2023/08/28 11:43:56;;;;;;;4.50;2.60;;;;;;;;;;4997663;28;20293;-78
2023/08/28 11:46:24;;;;;;;3.93;2.37;;;;;;;;;;5014059;28;20037;-78
2023/08/28 11:48:49;;;;;;;3.85;2.75;;;;;;;;;;5041309;28;20276;-78
2023/08/28 11:51:14;;;;;;;4.00;2.50;;;;;;;;;;5000162;28;20037;-78
2023/08/28 11:53:40;;;;;;;3.60;2.60;;;;;;;;;;4988262;28;20052;-80
2023/08/28 11:56:05;;;;;;;4.15;2.95;;;;;;;;;;4987180;28;20818;-79
2023/08/28 11:58:34;;;;;;;5.20;2.40;;;;;;;;;;5008505;28;20033;-78
2023/08/28 12:01:00;;;;;;;5.45;2.40;;;;;;;;;;5024848;28;20041;-80
2023/08/28 12:03:25;;;;;;;3.55;2.33;;;;;;;;;;5008137;28;20030;-79
2023/08/28 12:05:59;;;;;;;3.50;2.20;;;;;;;;;;5004809;28;20100;-78
2023/08/28 12:08:24;;;;;;;4.13;2.30;;;;;;;;;;4998623;28;20038;-77
2023/08/28 12:10:50;;;;;;;3.50;2.20;;;;;;;;;;4989126;28;20096;-78
2023/08/28 12:13:19;;;;;;;4.80;2.70;;;;;;;;;;5021377;28;20046;-78
2023/08/28 12:15:44;;;;;;;3.15;2.25;;;;;;;;;;4995194;28;20041;-77
2023/08/28 12:18:09;;;;;;;4.23;2.40;;;;;;;;;;5008875;28;20037;-78
2023/08/28 12:20:35;;;;;;;3.47;2.27;;;;;;;;;;5004494;28;20034;-79
2023/08/28 12:23:01;;;;;;;3.45;2.17;;;;;;;;;;4995056;28;20104;-78
2023/08/28 12:25:33;;;;;;;3.83;2.47;;;;;;;;;;5021944;28;20481;-80
2023/08/28 12:28:02;;;;;;;3.08;2.33;;;;;;;;;;5006275;28;20037;-77
2023/08/28 12:30:28;;;;;;;3.03;2.23;;;;;;;;;;5007829;28;20158;-79
2023/08/28 12:32:54;;;;;;;3.78;2.42;;;;;;;;;;5024465;28;20790;-77
2023/08/28 12:35:20;;;;;;;3.75;2.20;;;;;;;;;;5018202;28;20049;-78
2023/08/28 12:37:55;;;;;;;2.78;2.00;;;;;;;;;;5012218;28;20057;-77
2023/08/28 12:40:20;;;;;;;2.70;2.00;;;;;;;;;;5010524;28;20038;-77
2023/08/28 12:42:45;;;;;;;3.33;2.10;;;;;;;;;;5031850;28;20165;-78
2023/08/28 12:45:13;;;;;;;3.10;2.30;;;;;;;;;;4992875;28;20049;-78
2023/08/28 12:47:40;;;;;;;4.70;2.00;;;;;;;;;;5010478;28;20087;-78
2023/08/28 12:50:06;;;;;;;4.25;2.35;;;;;;;;;;4998922;28;20035;-77
2023/08/28 12:52:31;;;;;;;3.13;2.03;;;;;;;;;;4986963;28;20034;-76
2023/08/28 12:54:58;;;;;;;2.83;2.00;;;;;;;;;;4983814;28;20472;-77
2023/08/28 12:57:24;;;;;;;2.67;1.90;;;;;;;;;;4995939;28;20108;-78
2023/08/28 12:59:49;;;;;;;3.70;2.10;;;;;;;;;;5003750;28;20669;-78
2023/08/28 13:02:14;;;;;;;3.10;2.00;;;;;;;;;;5000209;28;20275;-79
2023/08/28 13:04:42;;;;;;;2.57;2.00;;;;;;;;;;5026825;28;20308;-78
2023/08/28 13:07:08;;;;;;;2.83;2.13;;;;;;;;;;5001339;28;20028;-78
2023/08/28 13:09:33;;;;;;;3.05;1.90;;;;;;;;;;5024105;28;20033;-78
2023/08/28 13:11:59;;;;;;;3.07;2.00;;;;;;;;;;5008386;28;20421;-78
2023/08/28 13:14:24;;;;;;;2.75;1.80;;;;;;;;;;4999404;28;20268;-78
2023/08/28 13:16:50;;;;;;;2.70;1.83;;;;;;;;;;5016991;28;20025;-78
2023/08/28 13:19:15;;;;;;;2.10;1.50;;;;;;;;;;5025224;28;20562;-79
2023/08/28 13:21:41;;;;;;;2.58;1.70;;;;;;;;;;4997290;28;20276;-78
2023/08/28 13:24:06;;;;;;;3.28;1.70;;;;;;;;;;4991219;28;20021;-79
2023/08/28 13:26:32;;;;;;;2.80;1.88;;;;;;;;;;4995977;28;20018;-79
2023/08/28 13:28:58;;;;;;;3.23;2.00;;;;;;;;;;5006693;28;20611;-79
2023/08/28 13:31:23;;;;;;;2.15;1.55;;;;;;;;;;5024120;28;20288;-78
2023/08/28 13:33:48;;;;;;;3.07;1.70;;;;;;;;;;5001687;28;20034;-78
2023/08/28 13:36:14;;;;;;;3.43;1.60;;;;;;;;;;4972590;28;20026;-78
2023/08/28 13:38:39;;;;;;;2.30;1.63;;;;;;;;;;4971078;28;20327;-79
2023/08/28 13:41:05;;;;;;;2.35;1.58;;;;;;;;;;4988142;28;20269;-79
2023/08/28 13:43:30;;;;;;;2.53;1.70;;;;;;;;;;4977277;28;20031;-79
2023/08/28 13:45:55;;;;;;;4.45;1.73;;;;;;;;;;5005027;28;20069;-78
2023/08/28 13:48:22;;;;;;;2.50;1.80;;;;;;;;;;5001274;28;20200;-80
2023/08/28 13:50:48;;;;;;;2.75;1.77;;;;;;;;;;4986015;28;20031;-79
2023/08/28 13:53:14;;;;;;;2.38;1.40;;;;;;;;;;5005419;28;20081;-78
2023/08/28 13:55:40;;;;;;;3.13;1.30;;;;;;;;;;4992352;28;20110;-79
2023/08/28 13:58:05;;;;;;;2.42;1.52;;;;;;;;;;5007717;28;20052;-80
2023/08/28 14:00:30;;;;;;;2.77;1.70;;;;;;;;;;5002773;28;20097;-80
2023/08/28 14:02:56;;;;;;;2.53;1.70;;;;;;;;;;5017863;28;20268;-78
2023/08/28 14:05:21;;;;;;;2.47;1.60;;;;;;;;;;5005243;28;20277;-77
2023/08/28 14:07:46;;;;;;;2.58;1.60;;;;;;;;;;5024186;28;20768;-89
2023/08/28 14:10:11;;;;;;;2.20;1.80;;;;;;;;;;5025186;28;20117;-77
2023/08/28 14:12:37;;;;;;;2.30;1.40;;;;;;;;;;5018552;28;20030;-79
2023/08/28 14:15:05;;;;;;;2.15;1.38;;;;;;;;;;5019889;28;20335;-81
2023/08/28 14:17:31;;;;;;;2.88;1.60;;;;;;;;;;5014847;28;20503;-79
2023/08/28 14:19:59;;;;;;;2.43;1.67;;;;;;;;;;5006525;28;20050;-80
2023/08/28 14:22:25;;;;;;;2.00;1.30;;;;;;;;;;5007750;28;20758;-79
2023/08/28 14:24:50;;;;;;;2.90;1.40;;;;;;;;;;5017502;28;20595;-79
2023/08/28 14:27:15;;;;;;;2.80;1.50;;;;;;;;;;5019533;28;20045;-79
2023/08/28 14:29:40;;;;;;;1.95;1.30;;;;;;;;;;4981758;28;20118;-79
2023/08/28 14:32:06;;;;;;;1.73;1.13;;;;;;;;;;4985617;28;20030;-79
2023/08/28 14:34:31;;;;;;;2.05;1.58;;;;;;;;;;5026121;28;20129;-79